createdAt,value
2022-08-25T00:00:24.063Z,21.10
2022-08-25T00:03:25.795Z,20.90
2022-08-25T00:06:29.660Z,20.90
2022-08-25T00:09:33.556Z,21.00
2022-08-25T00:12:35.297Z,21.10
2022-08-25T00:15:38.362Z,21.10
2022-08-25T00:18:41.988Z,21.10
2022-08-25T00:21:43.894Z,21.10
2022-08-25T00:24:45.740Z,21.00
2022-08-25T00:27:48.529Z,21.00
2022-08-25T00:30:50.858Z,19.40
2022-08-25T00:33:55.068Z,21.00
2022-08-25T00:36:57.068Z,21.00
2022-08-25T00:39:58.929Z,20.90
2022-08-25T00:43:00.752Z,20.90
2022-08-25T00:46:02.814Z,20.90
2022-08-25T00:49:24.935Z,20.90
2022-08-25T00:52:34.493Z,20.90
2022-08-25T00:55:39.153Z,20.90
2022-08-25T00:58:42.685Z,20.90
2022-08-25T01:01:44.755Z,20.80
2022-08-25T01:04:49.059Z,20.70
2022-08-25T01:07:52.411Z,20.60
2022-08-25T01:11:03.265Z,20.60
2022-08-25T01:14:06.574Z,20.60
2022-08-25T01:17:09.488Z,20.50
2022-08-25T01:20:11.506Z,20.40
2022-08-25T01:23:13.233Z,20.30
2022-08-25T01:26:30.392Z,20.30
2022-08-25T01:29:33.159Z,20.30
2022-08-25T01:32:35.090Z,20.30
2022-08-25T01:35:38.225Z,20.10
2022-08-25T01:38:39.992Z,20.00
2022-08-25T01:42:02.511Z,20.10
2022-08-25T01:45:05.363Z,20.20
2022-08-25T01:48:09.057Z,20.10
2022-08-25T01:51:10.784Z,20.20
2022-08-25T01:54:12.537Z,20.20
2022-08-25T01:57:15.672Z,20.00
2022-08-25T02:00:19.856Z,19.90
2022-08-25T02:03:21.884Z,20.00
2022-08-25T02:06:29.736Z,20.10
2022-08-25T02:09:32.334Z,20.00
2022-08-25T02:12:35.929Z,19.90
2022-08-25T02:15:43.205Z,20.00
2022-08-25T02:18:45.539Z,20.00
2022-08-25T02:21:47.852Z,20.00
2022-08-25T02:24:50.053Z,19.80
2022-08-25T02:27:51.744Z,19.60
2022-08-25T02:30:58.725Z,19.60
2022-08-25T02:34:04.196Z,19.50
2022-08-25T02:37:05.916Z,19.50
2022-08-25T02:40:08.821Z,19.50
2022-08-25T02:43:11.078Z,19.50
2022-08-25T02:46:13.052Z,19.50
2022-08-25T02:49:14.838Z,19.50
2022-08-25T02:52:16.913Z,19.50
2022-08-25T02:55:19.034Z,19.40
2022-08-25T02:58:21.161Z,19.40
2022-08-25T03:01:28.462Z,19.30
2022-08-25T03:04:31.895Z,19.40
2022-08-25T03:07:35.525Z,19.20
2022-08-25T03:10:37.481Z,19.10
2022-08-25T03:13:39.623Z,19.00
2022-08-25T03:16:42.754Z,19.10
2022-08-25T03:19:48.113Z,19.10
2022-08-25T03:22:50.711Z,19.00
2022-08-25T03:26:13.402Z,18.90
2022-08-25T03:29:15.300Z,18.90
2022-08-25T03:32:16.985Z,18.80
2022-08-25T03:35:19.251Z,18.80
2022-08-25T03:38:21.825Z,18.90
2022-08-25T03:41:32.520Z,18.90
2022-08-25T03:44:34.223Z,18.90
2022-08-25T03:47:35.915Z,18.90
2022-08-25T03:50:43.420Z,18.80
2022-08-25T03:53:53.616Z,18.80
2022-08-25T03:56:55.497Z,18.70
2022-08-25T03:59:57.197Z,18.60
2022-08-25T04:02:59.008Z,18.60
2022-08-25T04:06:05.726Z,18.60
2022-08-25T04:09:08.045Z,18.60
2022-08-25T04:12:10.192Z,18.70
2022-08-25T04:15:11.956Z,18.60
2022-08-25T04:18:13.862Z,18.60
2022-08-25T04:21:17.471Z,18.60
2022-08-25T04:24:19.583Z,18.60
2022-08-25T04:27:21.328Z,18.60
2022-08-25T04:30:23.240Z,18.50
2022-08-25T04:33:24.931Z,18.60
2022-08-25T04:36:26.805Z,18.40
2022-08-25T04:39:29.127Z,18.50
2022-08-25T04:42:30.872Z,18.60
2022-08-25T04:45:37.610Z,18.50
2022-08-25T04:48:40.512Z,18.50
2022-08-25T04:51:42.436Z,18.50
2022-08-25T04:54:44.174Z,18.30
2022-08-25T04:57:45.855Z,18.40
2022-08-25T05:00:47.790Z,18.40
2022-08-25T05:03:55.393Z,18.40
2022-08-25T05:06:58.213Z,18.50
2022-08-25T05:10:00.329Z,18.60
2022-08-25T05:13:02.021Z,18.50
2022-08-25T05:16:05.346Z,18.50
2022-08-25T05:19:11.473Z,18.50
2022-08-25T05:22:13.208Z,18.60
2022-08-25T05:25:15.009Z,18.70
2022-08-25T05:28:17.799Z,18.70
2022-08-25T05:31:20.545Z,18.80
2022-08-25T05:34:22.382Z,18.90
2022-08-25T05:37:24.063Z,18.90
2022-08-25T05:40:25.828Z,19.00
2022-08-25T05:43:28.657Z,19.20
2022-08-25T05:46:30.509Z,19.20
2022-08-25T05:49:33.457Z,19.30
2022-08-25T05:52:35.209Z,19.30
2022-08-25T05:55:36.911Z,19.40
2022-08-25T05:58:38.693Z,19.40
2022-08-25T06:01:59.193Z,19.50
2022-08-25T06:05:00.935Z,19.70
2022-08-25T06:08:02.964Z,19.80
2022-08-25T06:11:04.747Z,19.90
2022-08-25T06:14:08.177Z,19.90
2022-08-25T06:17:10.623Z,19.90
2022-08-25T06:20:15.864Z,20.10
2022-08-25T06:23:19.241Z,20.10
2022-08-25T06:26:21.620Z,20.30
2022-08-25T06:29:24.220Z,20.40
2022-08-25T06:32:25.934Z,20.50
2022-08-25T06:35:28.133Z,20.50
2022-08-25T06:38:30.051Z,20.70
2022-08-25T06:41:36.740Z,20.80
2022-08-25T06:44:38.955Z,20.80
2022-08-25T06:47:40.685Z,21.00
2022-08-25T06:50:43.127Z,21.10
2022-08-25T06:53:46.268Z,21.20
2022-08-25T06:56:49.604Z,21.30
2022-08-25T06:59:53.438Z,21.50
2022-08-25T07:02:55.397Z,21.60
2022-08-25T07:05:57.169Z,21.80
2022-08-25T07:08:59.450Z,21.90
2022-08-25T07:12:04.669Z,22.00
2022-08-25T07:15:21.952Z,22.20
2022-08-25T07:18:24.100Z,22.30
2022-08-25T07:21:31.219Z,22.40
2022-08-25T07:24:35.113Z,22.60
2022-08-25T07:27:38.033Z,22.70
2022-08-25T07:30:43.397Z,22.70
2022-08-25T07:34:04.212Z,22.80
2022-08-25T07:37:07.851Z,23.10
2022-08-25T07:40:21.500Z,23.30
2022-08-25T07:43:23.465Z,23.40
2022-08-25T07:46:25.270Z,23.90
2022-08-25T07:49:35.924Z,24.20
2022-08-25T07:52:41.781Z,24.20
2022-08-25T07:55:45.061Z,24.50
2022-08-25T07:58:48.847Z,24.50
2022-08-25T08:01:50.631Z,24.70
2022-08-25T08:04:53.725Z,24.90
2022-08-25T08:07:56.378Z,24.80
2022-08-25T08:11:05.171Z,25.10
2022-08-25T08:14:08.283Z,24.90
2022-08-25T08:17:10.690Z,25.20
2022-08-25T08:20:13.505Z,25.40
2022-08-25T08:23:17.400Z,25.70
2022-08-25T08:26:20.623Z,25.80
2022-08-25T08:29:23.132Z,26.00
2022-08-25T08:32:32.571Z,25.90
2022-08-25T08:35:46.727Z,26.10
2022-08-25T08:38:48.745Z,26.20
2022-08-25T08:42:17.869Z,26.40
2022-08-25T08:45:31.037Z,26.60
2022-08-25T08:48:44.338Z,27.00
2022-08-25T08:51:55.844Z,27.00
2022-08-25T08:55:06.443Z,26.90
2022-08-25T08:58:26.265Z,26.70
2022-08-25T09:01:33.954Z,27.10
2022-08-25T09:04:44.210Z,27.10
2022-08-25T09:08:10.172Z,27.20
2022-08-25T09:11:16.584Z,27.30
2022-08-25T09:14:53.801Z,27.20
2022-08-25T09:17:58.939Z,27.50
2022-08-25T09:21:12.609Z,28.00
2022-08-25T09:24:33.113Z,28.10
2022-08-25T09:27:48.268Z,28.30
2022-08-25T09:30:57.877Z,28.50
2022-08-25T09:34:03.104Z,28.50
2022-08-25T09:37:04.852Z,29.10
2022-08-25T09:40:07.327Z,29.30
2022-08-25T09:43:30.173Z,29.50
2022-08-25T09:46:31.969Z,29.40
2022-08-25T09:49:42.988Z,29.60
2022-08-25T09:52:45.880Z,29.90
2022-08-25T09:55:58.512Z,30.00
2022-08-25T09:59:35.205Z,30.10
2022-08-25T10:02:37.563Z,30.20
2022-08-25T10:06:00.807Z,29.90
2022-08-25T10:09:07.074Z,31.00
2022-08-25T10:12:28.841Z,31.40
2022-08-25T10:15:35.051Z,31.60
2022-08-25T10:18:37.184Z,31.80
2022-08-25T10:21:41.134Z,32.10
2022-08-25T10:24:44.166Z,32.10
2022-08-25T10:27:58.425Z,31.70
2022-08-25T10:31:23.716Z,32.00
2022-08-25T10:34:51.285Z,32.70
2022-08-25T10:38:13.328Z,32.80
2022-08-25T10:42:01.308Z,32.60
2022-08-25T10:45:43.471Z,32.30
2022-08-25T10:48:54.156Z,32.30
2022-08-25T10:52:03.246Z,32.70
2022-08-25T10:55:24.981Z,32.20
2022-08-25T10:58:43.227Z,32.00
2022-08-25T11:02:19.909Z,31.60
2022-08-25T11:05:24.503Z,31.20
2022-08-25T11:08:40.240Z,30.70
2022-08-25T11:12:22.446Z,30.50
2022-08-25T11:15:39.732Z,30.30
2022-08-25T11:19:05.384Z,30.40
2022-08-25T11:22:21.293Z,30.10
2022-08-25T11:25:51.934Z,29.90
2022-08-25T11:29:11.412Z,29.70
2022-08-25T11:32:15.233Z,29.70
2022-08-25T11:35:29.336Z,29.60
2022-08-25T11:38:49.023Z,29.50
2022-08-25T11:42:07.591Z,29.50
2022-08-25T11:45:18.380Z,29.40
2022-08-25T11:48:28.330Z,29.30
2022-08-25T11:51:43.812Z,29.60
2022-08-25T11:54:48.316Z,29.60
2022-08-25T11:57:53.623Z,29.80
2022-08-25T12:00:58.367Z,29.60
2022-08-25T12:04:12.499Z,29.60
2022-08-25T12:07:22.034Z,29.60
2022-08-25T12:10:25.690Z,29.60
2022-08-25T12:13:44.195Z,29.60
2022-08-25T12:16:51.823Z,29.50
2022-08-25T12:19:56.885Z,29.60
2022-08-25T12:22:59.986Z,29.70
2022-08-25T12:26:26.095Z,29.60
2022-08-25T12:30:05.951Z,29.50
2022-08-25T12:33:30.952Z,29.70
2022-08-25T12:36:34.437Z,29.60
2022-08-25T12:39:42.683Z,29.70
2022-08-25T12:42:44.540Z,29.60
2022-08-25T12:45:48.520Z,29.80
2022-08-25T12:48:54.021Z,30.00
2022-08-25T12:52:16.146Z,29.90
2022-08-25T12:55:20.729Z,29.80
2022-08-25T12:58:38.597Z,29.90
2022-08-25T13:02:29.888Z,29.80
2022-08-25T13:05:59.882Z,29.80
2022-08-25T13:09:36.798Z,29.80
2022-08-25T13:13:10.632Z,30.00
2022-08-25T13:16:29.359Z,30.20
2022-08-25T13:19:35.158Z,30.10
2022-08-25T13:22:37.367Z,29.90
2022-08-25T13:25:48.645Z,29.90
2022-08-25T13:28:58.927Z,30.20
2022-08-25T13:32:09.660Z,30.40
2022-08-25T13:35:22.925Z,30.20
2022-08-25T13:38:27.092Z,30.10
2022-08-25T13:41:33.855Z,30.30
2022-08-25T13:44:38.980Z,30.30
2022-08-25T13:47:45.197Z,30.20
2022-08-25T13:50:50.168Z,30.20
2022-08-25T13:54:00.223Z,30.30
2022-08-25T13:57:19.385Z,30.50
2022-08-25T14:00:32.515Z,30.30
2022-08-25T14:03:40.830Z,30.60
2022-08-25T14:06:47.867Z,30.80
2022-08-25T14:09:59.978Z,30.80
2022-08-25T14:13:31.248Z,30.80
2022-08-25T14:16:38.190Z,30.60
2022-08-25T14:19:47.652Z,30.60
2022-08-25T14:22:58.386Z,30.70
2022-08-25T14:26:01.003Z,30.70
2022-08-25T14:29:02.772Z,30.80
2022-08-25T14:32:10.730Z,30.80
2022-08-25T14:35:12.980Z,31.10
2022-08-25T14:38:19.690Z,31.20
2022-08-25T14:41:26.506Z,31.30
2022-08-25T14:44:28.247Z,31.20
2022-08-25T14:47:31.787Z,31.20
2022-08-25T14:50:34.015Z,31.30
2022-08-25T14:53:35.775Z,31.50
2022-08-25T14:56:37.724Z,31.60
2022-08-25T14:59:44.629Z,31.40
2022-08-25T15:02:51.463Z,31.40
2022-08-25T15:05:54.884Z,31.40
2022-08-25T15:09:10.939Z,31.20
2022-08-25T15:12:17.765Z,31.30
2022-08-25T15:15:28.695Z,31.10
2022-08-25T15:18:30.905Z,31.10
2022-08-25T15:21:32.810Z,31.00
2022-08-25T15:24:37.783Z,30.90
2022-08-25T15:27:41.036Z,30.60
2022-08-25T15:30:45.065Z,30.30
2022-08-25T15:33:47.695Z,30.20
2022-08-25T15:36:53.208Z,30.30
2022-08-25T15:39:54.947Z,30.30
2022-08-25T15:42:58.011Z,30.20
2022-08-25T15:46:00.635Z,30.10
2022-08-25T15:49:02.796Z,30.20
2022-08-25T15:52:05.576Z,30.30
2022-08-25T15:55:08.941Z,30.40
2022-08-25T15:58:10.641Z,30.40
2022-08-25T16:01:25.900Z,30.50
2022-08-25T16:04:29.112Z,30.30
2022-08-25T16:07:31.339Z,30.30
2022-08-25T16:10:35.190Z,30.30
2022-08-25T16:13:38.015Z,30.20
2022-08-25T16:16:43.951Z,30.10
2022-08-25T16:19:47.011Z,30.10
2022-08-25T16:22:49.193Z,30.10
2022-08-25T16:25:51.796Z,30.10
2022-08-25T16:28:53.777Z,30.10
2022-08-25T16:31:55.513Z,30.00
2022-08-25T16:34:58.797Z,29.90
2022-08-25T16:38:03.937Z,29.90
2022-08-25T16:41:10.754Z,29.90
2022-08-25T16:44:12.451Z,29.90
2022-08-25T16:47:17.805Z,29.80
2022-08-25T16:50:22.327Z,29.80
2022-08-25T16:53:45.557Z,29.80
2022-08-25T16:56:54.958Z,29.70
2022-08-25T16:59:56.899Z,29.60
2022-08-25T17:03:01.428Z,29.60
2022-08-25T17:06:04.014Z,29.60
2022-08-25T17:09:08.052Z,29.50
2022-08-25T17:12:11.328Z,29.50
2022-08-25T17:15:13.028Z,29.40
2022-08-25T17:18:15.998Z,29.40
2022-08-25T17:21:24.023Z,29.30
2022-08-25T17:24:29.486Z,29.30
2022-08-25T17:27:33.380Z,29.20
2022-08-25T17:30:38.897Z,29.20
2022-08-25T17:33:41.022Z,29.10
2022-08-25T17:36:42.844Z,29.00
2022-08-25T17:39:44.650Z,29.00
2022-08-25T17:42:48.050Z,28.90
2022-08-25T17:45:50.304Z,28.80
2022-08-25T17:48:52.524Z,28.70
2022-08-25T17:51:54.371Z,28.80
2022-08-25T17:54:56.185Z,28.60
2022-08-25T17:58:02.915Z,28.50
2022-08-25T18:01:05.763Z,28.30
2022-08-25T18:04:16.895Z,28.20
2022-08-25T18:07:19.766Z,28.10
2022-08-25T18:10:21.693Z,28.00
2022-08-25T18:13:23.961Z,27.90
2022-08-25T18:16:27.232Z,27.80
2022-08-25T18:19:29.496Z,27.70
2022-08-25T18:22:31.946Z,27.50
2022-08-25T18:25:34.848Z,27.40
2022-08-25T18:28:36.881Z,27.40
2022-08-25T18:31:41.767Z,27.30
2022-08-25T18:34:44.191Z,27.20
2022-08-25T18:38:04.516Z,27.10
2022-08-25T18:41:07.891Z,27.00
2022-08-25T18:44:10.938Z,26.90
2022-08-25T18:47:12.836Z,26.70
2022-08-25T18:50:15.221Z,26.50
2022-08-25T18:53:17.908Z,26.50
2022-08-25T18:56:32.104Z,26.30
2022-08-25T18:59:34.673Z,26.50
2022-08-25T19:02:36.459Z,26.30
2022-08-25T19:05:41.477Z,26.20
2022-08-25T19:08:46.987Z,26.20
2022-08-25T19:11:49.202Z,26.20
2022-08-25T19:14:50.897Z,26.00
2022-08-25T19:17:53.525Z,25.90
2022-08-25T19:20:55.241Z,25.70
2022-08-25T19:23:56.969Z,25.60
2022-08-25T19:27:02.300Z,25.50
2022-08-25T19:30:07.189Z,25.40
2022-08-25T19:33:11.544Z,25.30
2022-08-25T19:36:15.415Z,25.20
2022-08-25T19:39:17.532Z,25.20
2022-08-25T19:42:35.117Z,25.30
2022-08-25T19:45:37.624Z,25.10
2022-08-25T19:48:39.653Z,24.90
2022-08-25T19:51:45.438Z,24.90
2022-08-25T19:54:47.137Z,24.80
2022-08-25T19:57:48.845Z,24.80
2022-08-25T20:00:53.323Z,24.60
2022-08-25T20:03:55.310Z,25.50
2022-08-25T20:06:59.054Z,24.40
2022-08-25T20:10:01.721Z,24.50
2022-08-25T20:13:03.509Z,24.30
2022-08-25T20:16:05.669Z,24.20
2022-08-25T20:19:07.427Z,24.20
2022-08-25T20:22:11.426Z,24.20
2022-08-25T20:25:22.950Z,24.10
2022-08-25T20:28:25.276Z,24.00
2022-08-25T20:31:27.016Z,23.90
2022-08-25T20:34:29.536Z,23.90
2022-08-25T20:37:34.297Z,23.80
2022-08-25T20:40:36.229Z,23.70
2022-08-25T20:43:40.066Z,23.70
2022-08-25T20:46:41.873Z,23.50
2022-08-25T20:49:44.812Z,23.60
2022-08-25T20:52:46.551Z,23.70
2022-08-25T20:55:50.506Z,23.80
2022-08-25T20:58:52.219Z,23.90
2022-08-25T21:01:55.722Z,23.70
2022-08-25T21:04:57.589Z,23.50
2022-08-25T21:07:59.421Z,23.60
2022-08-25T21:11:01.197Z,23.70
2022-08-25T21:14:05.925Z,23.70
2022-08-25T21:17:11.291Z,23.60
2022-08-25T21:20:14.462Z,23.50
2022-08-25T21:23:16.192Z,23.50
2022-08-25T21:26:27.124Z,23.40
2022-08-25T21:29:29.976Z,23.40
2022-08-25T21:32:32.042Z,23.30
2022-08-25T21:35:33.983Z,23.20
2022-08-25T21:38:36.552Z,23.00
2022-08-25T21:41:44.123Z,23.10
2022-08-25T21:44:46.984Z,23.00
2022-08-25T21:47:48.810Z,22.90
2022-08-25T21:50:50.504Z,22.80
2022-08-25T21:54:08.743Z,22.80
2022-08-25T21:57:10.539Z,22.70
2022-08-25T22:00:14.562Z,21.20
2022-08-25T22:03:16.778Z,22.60
2022-08-25T22:06:22.351Z,22.50
2022-08-25T22:09:24.524Z,22.50
2022-08-25T22:12:27.425Z,22.50
2022-08-25T22:15:29.168Z,22.50
2022-08-25T22:18:30.909Z,22.40
2022-08-25T22:21:33.375Z,22.30
2022-08-25T22:24:35.287Z,22.20
2022-08-25T22:27:37.282Z,22.30
2022-08-25T22:30:40.259Z,22.20
2022-08-25T22:33:43.449Z,22.20
2022-08-25T22:36:47.929Z,22.10
2022-08-25T22:39:49.737Z,22.20
2022-08-25T22:42:52.077Z,21.90
2022-08-25T22:46:03.296Z,22.00
2022-08-25T22:49:05.032Z,21.80
2022-08-25T22:52:13.136Z,21.90
2022-08-25T22:55:15.489Z,21.80
2022-08-25T22:58:18.016Z,21.70
2022-08-25T23:01:20.617Z,21.70
2022-08-25T23:04:22.811Z,21.80
2022-08-25T23:07:28.075Z,21.70
2022-08-25T23:10:29.787Z,21.60
2022-08-25T23:13:34.238Z,21.50
2022-08-25T23:16:41.701Z,21.50
2022-08-25T23:19:43.769Z,21.40
2022-08-25T23:22:45.471Z,21.30
2022-08-25T23:25:52.917Z,21.20
2022-08-25T23:28:54.683Z,21.10
2022-08-25T23:31:57.509Z,21.10
2022-08-25T23:34:59.269Z,21.10
2022-08-25T23:38:01.919Z,21.10
2022-08-25T23:41:13.626Z,21.10
2022-08-25T23:44:17.144Z,21.10
2022-08-25T23:47:19.581Z,21.10
2022-08-25T23:50:21.749Z,21.10
2022-08-25T23:53:25.149Z,21.00
2022-08-25T23:56:26.904Z,21.00
2022-08-25T23:59:30.357Z,20.90
